Time;durP1;ratioP1;P1;durP2;ratioP2;P2;SDS_P1;SDS_P2;PMS_P1;PMS_P2;Temp;Humidity;BMP_temperature;BMP_pressure;BME280_temperature;BME280_humidity;BME280_pressure;Samples;Min_cycle;Max_cycle;Signal;HPM_P1;HPM_P2
2023/08/29 00:02:15;;;;;;;;;9.33;9.33;;;;;25.79;53.39;100103.56;146622;608;46012;-81
2023/08/29 00:05:19;;;;;;;;;8.33;8.33;;;;;25.80;54.40;100113.28;146627;589;46010;-84
2023/08/29 00:08:18;;;;;;;;;8.67;8.67;;;;;25.83;53.98;100120.34;146622;600;45914;-83
2023/08/29 00:11:23;;;;;;;;;12.00;11.25;;;;;25.86;54.73;100114.06;146625;565;45020;-80
2023/08/29 00:14:26;;;;;;;;;11.00;10.00;;;;;25.90;52.27;100115.78;146613;593;46015;-80
2023/08/29 00:17:27;;;;;;;;;12.50;12.50;;;;;25.84;52.51;100110.59;146619;572;45021;-80
2023/08/29 00:20:21;;;;;;;;;10.33;10.33;;;;;25.75;52.37;100099.22;146616;584;46012;-79
2023/08/29 00:23:28;;;;;;;;;10.67;10.67;;;;;25.71;53.88;100110.81;146619;579;45021;-79
2023/08/29 00:26:24;;;;;;;;;11.67;9.33;;;;;25.72;53.65;100115.22;146616;601;45916;-85
2023/08/29 00:29:44;;;;;;;;;9.00;9.00;;;;;25.75;54.60;100112.50;146624;619;45021;-85
2023/08/29 00:32:36;;;;;;;;;14.33;12.00;;;;;25.78;53.73;100114.22;146621;621;45916;-87
2023/08/29 00:35:43;;;;;;;;;11.67;11.67;;;;;25.78;53.94;100112.44;146617;638;46010;-85
2023/08/29 00:38:52;;;;;;;;;12.00;11.67;;;;;25.78;53.46;100115.09;146615;571;46014;-84
2023/08/29 00:42:11;;;;;;;;;12.33;12.33;;;;;25.81;54.35;100108.88;146620;563;45020;-86
2023/08/29 00:45:37;;;;;;;;;10.67;10.33;;;;;25.29;54.00;100023.19;146614;728;46012;-86
2023/08/29 00:48:55;;;;;;;;;;;;;;;;;;;;;
2023/08/29 00:51:59;;;;;;;;;11.33;10.00;;;;;25.77;53.07;100104.50;146615;565;46017;-80
2023/08/29 00:55:00;;;;;;;;;11.00;9.00;;;;;25.75;53.38;100099.22;146619;669;45021;-79
2023/08/29 00:58:02;;;;;;;;;11.00;11.00;;;;;25.77;53.03;100104.50;146623;635;45916;-80
2023/08/29 01:01:12;;;;;;;;;10.00;9.67;;;;;25.76;54.00;100100.97;146618;690;46014;-81
2023/08/29 01:04:13;;;;;;;;;13.00;9.33;;;;;25.72;53.37;100093.09;146621;650;46012;-81
2023/08/29 01:07:35;;;;;;;;;;;;;;;;;;;;;
2023/08/29 01:11:12;;;;;;;;;10.25;10.00;;;;;25.62;54.83;100079.16;146615;587;45912;-80
2023/08/29 01:14:19;;;;;;;;;10.00;10.00;;;;;25.62;54.95;100079.16;146619;622;46010;-77
2023/08/29 01:18:03;;;;;;;;;12.50;10.25;;;;;25.65;54.52;100079.09;146614;610;45912;-78
2023/08/29 01:21:07;;;;;;;;;11.00;10.75;;;;;25.59;53.98;100065.94;146619;642;45020;-85
2023/08/29 01:24:31;;;;;;;;;10.33;10.33;;;;;25.56;55.03;100069.53;146615;606;45914;-83
2023/08/29 01:27:43;;;;;;;;;11.67;10.33;;;;;25.52;54.83;100073.16;146618;572;45020;-83
2023/08/29 01:30:49;;;;;;;;;10.00;10.00;;;;;25.46;56.19;100069.75;146617;573;45914;-79
2023/08/29 01:33:50;;;;;;;;;12.33;10.33;;;;;25.38;56.80;100069.03;146614;566;46010;-78
2023/08/29 01:36:59;;;;;;;;;10.33;10.33;;;;;24.38;57.18;99909.09;146616;622;45915;-79
2023/08/29 01:40:04;;;;;;;;;8.67;8.67;;;;;25.36;57.63;100077.03;146617;662;46014;-81
2023/08/29 01:43:10;;;;;;;;;12.00;12.00;;;;;25.34;57.60;100063.78;146624;628;45914;-80
2023/08/29 01:46:13;;;;;;;;;12.00;11.00;;;;;25.41;57.49;100064.53;146619;587;46014;-77
2023/08/29 01:49:20;;;;;;;;;12.67;11.67;;;;;25.41;57.04;100061.00;146615;616;46012;-79
2023/08/29 01:52:25;;;;;;;;;11.67;11.00;;;;;25.35;56.33;100059.34;146618;595;46014;-77
2023/08/29 01:55:26;;;;;;;;;10.00;10.00;;;;;25.30;56.17;100074.50;146617;611;45914;-84
2023/08/29 01:58:37;;;;;;;;;11.00;8.00;;;;;25.25;55.89;100061.31;146618;592;45020;-77
2023/08/29 02:01:41;;;;;;;;;10.00;9.67;;;;;25.22;55.69;100055.19;146622;588;46012;-78
2023/08/29 02:04:52;;;;;;;;;11.67;11.00;;;;;24.18;54.53;99888.28;146626;591;45049;-80
2023/08/29 02:08:06;;;;;;;;;12.00;11.67;;;;;25.10;54.51;100051.81;146617;620;45914;-79
2023/08/29 02:11:16;;;;;;;;;11.00;11.00;;;;;25.09;53.86;100062.47;146620;595;45020;-75
2023/08/29 02:14:18;;;;;;;;;9.67;9.33;;;;;25.05;52.75;100050.19;146616;575;46015;-78
2023/08/29 02:17:41;;;;;;;;;9.67;9.67;;;;;24.46;54.21;99946.09;146627;612;46010;-79
2023/08/29 02:20:41;;;;;;;;;12.33;11.33;;;;;24.99;53.93;100042.34;146622;587;45914;-80
2023/08/29 02:23:33;;;;;;;;;9.00;8.67;;;;;25.02;53.61;100045.81;146619;608;46014;-78
2023/08/29 02:26:53;;;;;;;;;10.33;10.00;;;;;24.50;54.28;99955.75;146623;593;46012;-78
2023/08/29 02:29:58;;;;;;;;;;;;;;;;;;;;;
2023/08/29 02:33:01;;;;;;;;;10.33;10.33;;;;;24.92;53.80;100057.47;146621;584;45912;-82
2023/08/29 02:36:26;;;;;;;;;;;;;;;;;;;;;
2023/08/29 02:39:36;;;;;;;;;9.00;9.00;;;;;24.80;54.65;100053.28;146620;570;46014;-79
2023/08/29 02:42:33;;;;;;;;;9.00;9.00;;;;;24.79;55.01;100042.69;146625;706;46010;-81
2023/08/29 02:45:28;;;;;;;;;11.00;11.00;;;;;24.77;55.14;100048.03;146620;565;45915;-84
2023/08/29 02:48:52;;;;;;;;;10.33;10.00;;;;;24.81;55.26;100052.38;146619;573;45020;-85
2023/08/29 02:52:09;;;;;;;;;11.00;9.33;;;;;24.86;55.78;100055.81;146614;633;46016;-77
2023/08/29 02:55:19;;;;;;;;;10.67;10.00;;;;;24.92;55.27;100061.91;146626;607;46010;-78
2023/08/29 02:58:15;;;;;;;;;12.00;10.67;;;;;24.98;54.49;100053.81;146617;631;45914;-79
2023/08/29 03:01:17;;;;;;;;;11.33;11.33;;;;;24.96;53.87;100056.53;146619;572;45021;-80
2023/08/29 03:04:28;;;;;;;;;11.00;10.67;;;;;24.88;52.95;100045.16;146614;575;46012;-77
2023/08/29 03:07:29;;;;;;;;;11.00;11.00;;;;;24.79;53.12;100053.28;146618;594;46011;-77
2023/08/29 03:10:38;;;;;;;;;9.00;9.00;;;;;24.72;53.32;100044.56;146622;590;45916;-80
2023/08/29 03:13:58;;;;;;;;;11.00;11.00;;;;;24.69;53.95;100038.44;146623;585;45918;-84
2023/08/29 03:17:04;;;;;;;;;10.00;9.33;;;;;24.62;54.94;100027.94;146622;673;45911;-87
2023/08/29 03:20:18;;;;;;;;;8.00;7.00;;;;;24.63;54.45;100023.53;146631;565;45020;-83
2023/08/29 03:23:34;;;;;;;;;;;;;;;;;;;;;
2023/08/29 03:26:42;;;;;;;;;14.00;11.67;;;;;24.08;55.12;99931.69;146621;601;46020;-83
2023/08/29 03:29:38;;;;;;;;;11.33;9.67;;;;;24.65;54.13;100032.34;146617;599;46013;-83
2023/08/29 03:32:49;;;;;;;;;9.00;9.00;;;;;24.62;54.52;100029.72;146631;656;46010;-77
2023/08/29 03:36:03;;;;;;;;;11.67;10.00;;;;;24.58;55.06;100020.97;146627;576;45914;-81
2023/08/29 03:39:02;;;;;;;;;13.67;11.67;;;;;24.51;55.48;100015.78;146625;589;45020;-83
2023/08/29 03:41:55;;;;;;;;;13.00;11.00;;;;;24.41;55.87;100005.34;146621;673;45916;-85
2023/08/29 03:45:15;;;;;;;;;;;;;;;;;;;;;
2023/08/29 03:48:13;;;;;;;;;10.00;9.00;;;;;24.40;56.26;100010.66;146622;585;46014;-84
2023/08/29 03:51:26;;;;;;;;;10.75;10.75;;;;;24.48;56.67;100022.00;146632;610;45021;-83
2023/08/29 03:54:29;;;;;;;;;10.33;10.00;;;;;24.38;54.99;99986.81;146620;595;46012;-83
2023/08/29 03:57:41;;;;;;;;;;;;;;;;;;;;;
2023/08/29 04:00:39;;;;;;;;;10.67;10.00;;;;;24.64;55.26;100022.63;146628;613;45914;-83
2023/08/29 04:03:34;;;;;;;;;11.00;10.00;;;;;24.65;55.31;100021.72;146622;629;46014;-79
2023/08/29 04:06:43;;;;;;;;;13.00;9.00;;;;;24.70;54.73;100040.19;146621;592;45916;-83
2023/08/29 04:09:49;;;;;;;;;9.00;9.00;;;;;24.02;55.70;99910.59;146649;619;44028;-80
2023/08/29 04:12:50;;;;;;;;;12.67;11.00;;;;;24.88;54.12;100037.22;146645;614;44917;-81
2023/08/29 04:15:58;;;;;;;;;;;;;;;;;;;;;
2023/08/29 04:18:54;;;;;;;;;13.33;12.33;;;;;24.82;54.06;100048.81;146639;580;44915;-82
2023/08/29 04:21:48;;;;;;;;;10.67;10.00;;;;;24.79;54.24;100043.56;146641;591;44021;-84
2023/08/29 04:24:45;;;;;;;;;11.75;11.25;;;;;24.79;54.82;100048.84;146638;638;44916;-83
2023/08/29 04:27:46;;;;;;;;;11.33;10.33;;;;;24.87;53.95;100040.78;146641;570;44020;-82
2023/08/29 04:31:27;;;;;;;;;;;;;;;;;;;;;
2023/08/29 04:34:36;;;;;;;;;11.33;9.00;;;;;25.05;53.99;100044.88;146635;591;44022;-81
2023/08/29 04:37:32;;;;;;;;;13.33;12.33;;;;;25.09;53.47;100046.56;146638;564;45914;-83
2023/08/29 04:40:40;;;;;;;;;10.33;10.00;;;;;25.06;53.72;100049.25;146638;612;45020;-81
2023/08/29 04:43:38;;;;;;;;;14.33;13.00;;;;;25.09;52.95;100047.44;146629;632;45915;-82
2023/08/29 04:46:52;;;;;;;;;11.00;11.00;;;;;25.24;53.35;100029.50;146642;574;44028;-83
2023/08/29 04:49:55;;;;;;;;;;;;;;;;;;;;;
2023/08/29 04:52:58;;;;;;;;;11.00;11.00;;;;;25.70;52.60;100048.00;146641;579;44022;-82
2023/08/29 04:55:52;;;;;;;;;10.00;10.00;;;;;25.93;51.44;100051.97;146637;566;45914;-83
2023/08/29 04:58:51;;;;;;;;;11.67;10.33;;;;;26.14;51.19;100046.16;146639;628;45010;-80
2023/08/29 05:02:00;;;;;;;;;13.67;12.33;;;;;26.33;50.73;100057.22;146637;653;45914;-80
2023/08/29 05:04:57;;;;;;;;;11.00;10.00;;;;;26.51;49.17;100060.34;146634;564;44021;-83
2023/08/29 05:08:00;;;;;;;;;18.33;12.67;;;;;26.64;48.11;100056.50;146629;608;46012;-83
2023/08/29 21:15:16;;;;;;;;;16.25;12.75;;;;;25.62;66.26;99866.75;146704;564;45022;-77
2023/08/29 21:18:11;;;;;;;;;14.25;14.00;;;;;25.73;64.23;99863.81;146622;725;45016;-75
2023/08/29 21:21:10;;;;;;;;;14.75;13.75;;;;;25.90;63.63;99872.28;146623;697;45021;-79
2023/08/29 21:24:04;;;;;;;;;15.67;14.33;;;;;26.05;62.84;99865.72;146623;685;45915;-74
2023/08/29 21:27:02;;;;;;;;;13.33;13.00;;;;;26.20;62.33;99870.63;146627;564;45020;-73
2023/08/29 21:30:01;;;;;;;;;14.33;12.00;;;;;26.29;61.89;99872.16;146622;663;45916;-76
2023/08/29 21:33:10;;;;;;;;;11.50;10.75;;;;;26.35;61.78;99879.09;146622;660;45020;-76
2023/08/29 21:36:17;;;;;;;;;14.67;13.00;;;;;26.37;62.22;99874.62;146620;569;46017;-75
2023/08/29 21:39:32;;;;;;;;;13.00;12.33;;;;;26.36;62.60;99878.22;146627;629;45020;-87
2023/08/29 21:42:42;;;;;;;;;13.00;11.67;;;;;26.38;63.34;99874.56;146622;601;45016;-77
2023/08/29 21:45:44;;;;;;;;;13.00;12.00;;;;;26.34;63.88;99869.38;146625;563;45021;-77
2023/08/29 21:48:51;;;;;;;;;11.67;11.67;;;;;26.33;63.59;99870.31;146621;574;45016;-77
2023/08/29 21:51:54;;;;;;;;;9.00;8.67;;;;;26.33;62.55;99873.84;146623;644;47010;-78
2023/08/29 21:55:24;;;;;;;;;15.00;12.25;;;;;26.38;62.68;99873.69;146621;697;45016;-79
2023/08/29 21:58:27;;;;;;;;;13.33;11.67;;;;;26.48;62.26;99864.56;146625;609;45023;-82
2023/08/29 22:01:29;;;;;;;;;16.25;13.25;;;;;26.56;61.91;99867.91;146622;563;45016;-78
2023/08/29 22:04:22;;;;;;;;;12.00;12.00;;;;;26.52;61.10;99839.69;146625;674;45020;-78
2023/08/29 22:07:17;;;;;;;;;12.67;11.00;;;;;26.69;60.83;99863.97;146622;597;45016;-79
2023/08/29 22:10:28;;;;;;;;;13.33;11.00;;;;;26.74;60.63;99863.87;146627;603;45020;-77
2023/08/29 22:13:34;;;;;;;;;11.00;9.67;;;;;26.75;60.18;99859.41;146623;602;45017;-77
2023/08/29 22:16:53;;;;;;;;;9.67;9.67;;;;;26.73;60.40;99851.50;146627;576;45024;-80
2023/08/29 22:20:12;;;;;;;;;12.67;11.00;;;;;26.80;59.92;99857.50;146622;564;45017;-81
2023/08/29 22:23:32;;;;;;;;;12.33;12.00;;;;;26.74;59.86;99842.59;146625;599;45020;-81
2023/08/29 22:26:43;;;;;;;;;10.00;9.67;;;;;26.72;59.54;99841.75;146620;580;45018;-80
2023/08/29 22:29:40;;;;;;;;;12.00;9.33;;;;;26.60;58.90;99842.97;146628;593;45047;-77
2023/08/29 22:35:44;;;;;;;;;16.67;13.33;;;;;26.49;59.92;99853.06;146625;596;46013;-87
2023/08/29 22:38:37;;;;;;;;;10.67;10.33;;;;;26.43;59.60;99850.53;146621;600;46012;-80
2023/08/29 22:41:41;;;;;;;;;10.67;10.67;;;;;26.37;59.29;99850.69;146618;570;47010;-87
2023/08/29 22:45:05;;;;;;;;;13.00;12.00;;;;;24.95;59.24;99624.25;146619;566;46016;-87
2023/08/29 22:47:57;;;;;;;;;12.33;10.33;;;;;26.17;59.06;99841.50;146620;569;46010;-85
2023/08/29 22:50:52;;;;;;;;;9.67;8.67;;;;;26.09;59.90;99840.81;146620;626;47012;-82
2023/08/29 22:54:00;;;;;;;;;;;;;;;;;;;;;
2023/08/29 22:57:10;;;;;;;;;9.67;9.00;;;;;26.01;59.69;99838.38;146622;608;46013;-82
2023/08/29 23:00:12;;;;;;;;;12.33;10.67;;;;;26.05;58.98;99830.31;146625;564;46020;-79
2023/08/29 23:03:16;;;;;;;;;11.67;10.67;;;;;26.11;58.91;99831.03;146619;613;46012;-78
2023/08/29 23:06:21;;;;;;;;;13.00;11.33;;;;;26.23;58.05;99829.81;146624;619;46029;-80
2023/08/29 23:09:35;;;;;;;;;11.33;11.33;;;;;26.38;55.85;99834.69;146620;676;47014;-80
2023/08/29 23:12:36;;;;;;;;;12.50;10.50;;;;;26.52;54.88;99826.37;146620;602;46011;-78
2023/08/29 23:15:40;;;;;;;;;11.67;10.33;;;;;26.71;54.73;99824.06;146616;601;46016;-82
2023/08/29 23:18:40;;;;;;;;;7.75;7.50;;;;;26.89;53.28;99833.28;146624;737;46010;-78
2023/08/29 23:21:40;;;;;;;;;8.00;6.33;;;;;27.06;52.87;99827.44;146621;624;46017;-75
2023/08/29 23:24:33;;;;;;;;;13.25;9.50;;;;;27.19;53.68;99834.16;146626;582;46020;-80
2023/08/29 23:27:41;;;;;;;;;8.00;6.67;;;;;27.32;52.01;99831.97;146624;590;46017;-80
2023/08/29 23:30:57;;;;;;;;;9.33;9.00;;;;;27.40;50.01;99833.47;146627;630;46020;-79
2023/08/29 23:34:08;;;;;;;;;13.67;9.67;;;;;26.95;52.22;99742.66;146622;620;46017;-80
2023/08/29 23:37:06;;;;;;;;;10.67;10.00;;;;;27.53;50.77;99844.59;146624;681;47010;-77
2023/08/29 23:40:12;;;;;;;;;9.67;9.33;;;;;27.58;47.73;99845.34;146613;676;46012;-77
2023/08/29 23:43:17;;;;;;;;;11.00;10.00;;;;;27.60;49.28;99848.84;146627;601;46020;-78
2023/08/29 23:46:26;;;;;;;;;9.67;9.67;;;;;27.59;48.40;99847.06;146618;604;46012;-77
2023/08/29 23:49:31;;;;;;;;;10.33;9.33;;;;;27.57;47.60;99846.28;146630;587;46021;-77
2023/08/29 23:52:47;;;;;;;;;9.67;9.33;;;;;27.56;50.58;99849.84;146624;585;46016;-78
2023/08/29 23:55:46;;;;;;;;;8.33;6.67;;;;;27.56;47.89;99846.31;146631;635;46011;-79
2023/08/29 23:58:45;;;;;;;;;10.00;9.33;;;;;27.59;48.61;99851.53;146624;572;46012;-81
